Tropical Cyclones
[Index]
Main Index Home Page Stock Weather Photos Extreme Storms Discussion Storm News and Storm Chasing Reports Tropical Cyclones / Hurricanes / Typhoons Weather Data and Links Wild Fires / Bushfires Weather Observation Techniques Weather Picture Catalogue Tornado Pictures and Reports Stock Video Footage and DVDs for sale
Season 1999-2000 Tropical Cyclone STEVE Track Map
Season 1999-2000 Summaries (Operational Data): [AU] [SIO] [SPAC] [SH]
<<- Previous TC | 1999-2000 Season | Next TC ->>

click for intensity scale information  Lat/long Grid: Show Hide

 Date Labels: Show Hide

Operational Tropical Cyclone Data : JTWC Advisories

Name: STEVE
Number: 0014

25 Feb 2000 06:00 UTC to 12 Mar 2000 17:00 UTC

    date/time    lat    long     hPa   cat  kts
2000-02-25 06   16.0   152.0    1003                     
2000-02-25 18   16.5   150.3    1000    1    40          
2000-02-26 00   16.5   149.0    1000    1    40          
2000-02-26 06   16.5   149.0    1000    1    40          
2000-02-26 12   16.5   148.5    1000    1    40          
2000-02-26 18   16.5   147.4     996    1    40          
2000-02-26 20   16.5   147.4     994    1    40          
2000-02-27 00   16.8   146.9     988    2    50          
2000-02-27 06   16.5   146.3     980    2    55          
2000-02-27 12   16.7   145.1     987    1    40          
2000-02-27 18   16.5   143.2                             
2000-02-28 04   17.9   142.1    1002         22          
2000-02-28 07   17.5   141.5    1002         30          
2000-02-28 13   16.9   140.8    1000         30          
2000-02-28 17   16.9   139.7     997         30          
2000-02-28 18   16.6   139.6     992    1    40          
2000-02-29 00   16.5   139.1     988    1    45          
2000-02-29 06   16.4   138.6     988    1    45          
2000-02-29 12   15.7   138.1     988    1    45          
2000-02-29 18   15.6   137.4     988    1    45          
2000-03-01 00   15.6   136.6     988    1    45          
2000-03-01 06   15.4   135.8     992    1    45          
2000-03-01 12   15.2   134.8     996         30          
2000-03-01 23   14.6   133.2     996    1    35          
2000-03-02 06   14.9   132.4     996         30          
2000-03-02 12   14.4   131.3     995         30          
2000-03-02 18   14.5   130.3     994         33          
2000-03-03 00   14.9   129.3     995         33          
2000-03-03 04   15.2   129.0     995         33          
2000-03-03 10   15.4   128.3     995    1    35          
2000-03-03 16   16.1   126.9     994    1    35          
2000-03-03 22   16.4   125.8     994    1    35          
2000-03-04 04   17.0   123.5     994    1    35          
2000-03-04 10   17.3   122.5     992    1    35          
2000-03-04 16   17.7   122.2     992    1    35          
2000-03-04 22   17.9   121.3     990    1    35          
2000-03-05 04   18.4   120.4     988    1    45          
2000-03-05 10   19.0   119.5     985    1    45          
2000-03-05 16   19.2   119.0     985    1    45          
2000-03-05 22   19.8   118.2     975    2    55          
2000-03-06 04   20.3   117.3     975    2    60          
2000-03-06 10   20.4   116.5     975    2    60          
2000-03-06 16   21.1   115.9     975    2    55          
2000-03-06 22   21.9   115.2     980    1    40          
2000-03-07 04   22.7   114.7     980    1    45          
2000-03-07 10   23.1   114.1     980    1    45          
2000-03-07 16   23.3   113.6     980    1    45          
2000-03-07 22   23.6   113.6     980    1    45          
2000-03-08 04   24.5   113.4     980    1    45          
2000-03-08 10   25.0   113.1     980    1    45          
2000-03-08 16   25.1   113.3     980    1    45          
2000-03-08 22   25.3   113.3     980    1    40          
2000-03-09 04   25.6   113.8     982    1    40          
2000-03-09 12   25.9   114.2                             
2000-03-10 00   26.8   115.9                             
2000-03-10 12   29.0   118.9                             
2000-03-11 16   36.0   126.0     988    1    40          
2000-03-11 22   37.0   127.0     990    1    40          
2000-03-12 06   39.0   129.0     993    1    40          
2000-03-12 17   44.0   135.0     993    1    40          
Winds are 10-min average.

Tropical cyclone tracks developed by Michael Bath using operational warnings and advisories and Google Maps.


[Australian Severe Weather index] [Copyright Notice] [Email Contacts] [Search This Site] [Privacy Policy]
Document: tropical_cyclone_steve.htm Updated: 28 May 2013